Flight Track Log - Related Links

Times and Time Zones

All times are in EDT time to prevent confusion due to time zone crossing. See the N237RB flight status page for this flight to view local times or setup timezone preferences in your user account.

Time Position Orientation Groundspeed Altitude Reporting Facility
EDT Latitude Longitude Course Direction KTS MPH feet Rate Location/Type
Fri 12:41:20 PM 38.9500 -94.3000 89° East 105 121 2,500  Level Kansas City TRACON
Fri 12:43:04 PM 38.9506 -94.2306 89° East 125 144 4,000 867 Climbing Kansas City Center
Fri 12:44:06 PM 38.9469 -94.1869 96° East 129 148 4,900 919 Climbing Kansas City Center
Fri 12:45:08 PM 38.9428 -94.1353 96° East 131 151 5,900 919 Climbing Kansas City Center
Fri 12:46:10 PM 38.9389 -94.0903 96° East 134 154 6,800 532 Climbing Kansas City Center
Fri 12:47:12 PM 38.9342 -94.0386 97° East 152 175 7,000 48 Climbing Kansas City Center
Fri 12:48:14 PM 38.9275 -93.9653 97° East 185 213 6,900 -48 Descending Kansas City Center
Fri 12:49:16 PM 38.9231 -93.9025 95° East 185 213 6,900  Level Kansas City Center
Fri 12:50:18 PM 38.9167 -93.8311 97° East 180 207 6,900  Level Kansas City Center
Fri 12:51:20 PM 38.9139 -93.7697 93° East 179 206 6,900  Level Kansas City Center
Fri 12:52:23 PM 38.9069 -93.6989 97° East 177 204 6,900  Level Kansas City Center
Fri 12:53:25 PM 38.9017 -93.6344 96° East 181 208 6,900  Level Kansas City Center
Fri 12:55:29 PM 38.8903 -93.5086 97° East 178 205 6,900  Level Kansas City Center
Fri 12:56:31 PM 38.8858 -93.4456 95° East 176 203 6,900  Level Kansas City Center
Fri 12:57:33 PM 38.8825 -93.3789 94° East 181 208 6,900  Level Kansas City Center
Fri 12:58:35 PM 38.8756 -93.3019 97° East 181 208 6,900  Level Kansas City Center
Fri 12:59:37 PM 38.8703 -93.2383 96° East 179 206 6,900  Level Kansas City Center
Fri 01:00:39 PM 38.8658 -93.1725 95° East 181 208 6,900  Level Kansas City Center
Fri 01:01:41 PM 38.8589 -93.1089 98° East 180 207 6,900 48 Level Kansas City Center
Fri 01:02:43 PM 38.8544 -93.0436 95° East 182 209 7,000 48 Climbing Kansas City Center
Fri 01:03:45 PM 38.8483 -92.9786 97° East 183 211 7,000  Level Kansas City Center
Fri 01:04:47 PM 38.8417 -92.9014 96° East 182 209 7,000  Level Kansas City Center
Fri 01:05:49 PM 38.8356 -92.8367 97° East 181 208 7,000  Level Kansas City Center
Fri 01:06:51 PM 38.8300 -92.7706 96° East 184 212 7,000  Level Kansas City Center
Fri 01:07:53 PM 38.8233 -92.7075 98° East 181 208 7,000  Level Kansas City Center
Fri 01:08:55 PM 38.8181 -92.6439 96° East 180 207 7,000  Level Kansas City Center
Fri 01:09:57 PM 38.8131 -92.5792 96° East 181 208 7,000  Level Kansas City Center
Fri 01:10:59 PM 38.8075 -92.5153 96° East 180 207 7,000  Level Kansas City Center
Fri 01:12:01 PM 38.8017 -92.4406 96° East 176 203 7,000  Level Kansas City Center
Fri 01:13:03 PM 38.7950 -92.3778 98° East 177 204 7,000  Level Kansas City Center
Fri 01:14:05 PM 38.7894 -92.3097 96° East 179 206 7,000  Level Kansas City Center
Fri 01:15:08 PM 38.7831 -92.2506 98° East 178 205 7,000  Level Kansas City Center
Fri 01:16:10 PM 38.7767 -92.1878 97° East 178 205 7,000  Level Kansas City Center
Fri 01:17:12 PM 38.7717 -92.1253 96° East 176 203 7,000  Level Kansas City Center
Fri 01:18:14 PM 38.7650 -92.0636 98° East 175 201 7,000  Level Kansas City Center
Fri 01:19:16 PM 38.7594 -91.9886 95° East 175 201 7,000  Level Kansas City Center
Fri 01:20:18 PM 38.7522 -91.9264 98° East 175 201 7,000  Level Kansas City Center
Fri 01:21:20 PM 38.7461 -91.8631 97° East 177 204 7,000  Level Kansas City Center
Fri 01:22:22 PM 38.7414 -91.8019 96° East 174 200 7,000  Level Kansas City Center
Fri 01:23:24 PM 38.7353 -91.7414 97° East 173 199 7,000  Level Kansas City Center
Fri 01:24:26 PM 38.7281 -91.6775 98° East 175 201 7,000  Level Kansas City Center
Fri 01:25:28 PM 38.7233 -91.6144 95° East 177 204 7,000 -48 Level Kansas City Center
Fri 01:26:30 PM 38.7172 -91.5536 97° East 175 201 6,900 -242 Descending Kansas City Center
Fri 01:27:32 PM 38.7094 -91.4769 97° East 178 205 6,500 -387 Descending Kansas City Center
Fri 01:28:34 PM 38.7019 -91.4097 98° East 184 212 6,100 -387 Descending Kansas City Center
Fri 01:29:36 PM 38.6956 -91.3431 97° East 189 217 5,700 -387 Descending Kansas City Center
Fri 01:30:38 PM 38.6889 -91.2778 97° East 188 216 5,300 -339 Descending Kansas City Center
Fri 01:31:40 PM 38.6819 -91.2139 98° East 184 212 5,000 -145 Descending Kansas City Center
Fri 01:32:42 PM 38.6758 -91.1536 97° East 175 201 5,000  Level Kansas City Center
Fri 01:33:44 PM 38.6692 -91.0847 97° East 166 191 5,000  Level Kansas City Center
Fri 01:34:46 PM 38.6631 -91.0264 98° East 166 191 5,000  Level Kansas City Center
Fri 01:35:48 PM 38.6572 -90.9697 97° East 164 189 5,000 -242 Level Kansas City Center
Fri 01:36:50 PM 38.6425 -90.9117 108° East 168 193 4,500 -484 Descending Kansas City Center
Fri 01:37:52 PM 38.6264 -90.8514 109° East 176 203 4,000 -242 Descending Kansas City Center
Fri 01:38:54 PM 38.6097 -90.7822 107° East 173 199 4,000  Level Kansas City Center
Fri 01:39:56 PM 38.5969 -90.7272 107° East 165 190 4,000  Level Kansas City Center
Fri 01:40:59 PM 38.5850 -90.6728 106° East 162 186 4,000  Level Kansas City Center
Fri 01:42:01 PM 38.5722 -90.6194 107° East 160 184 4,000 -48 Level Kansas City Center
Fri 01:43:03 PM 38.5597 -90.5672 107° East 157 181 3,900 -339 Descending Kansas City Center
Fri 01:44:05 PM 38.5442 -90.4989 106° East 163 188 3,300 -484 Descending Kansas City Center
Fri 01:45:07 PM 38.5472 -90.4400 86° East 171 197 2,900 -339 Descending Kansas City Center
Fri 01:46:09 PM 38.5544 -90.3825 81° East 169 194 2,600 -145 Descending Kansas City Center
Fri 01:47:11 PM 38.5636 -90.3322 77° East 157 181 2,600 -145 Level Kansas City Center
Fri 01:48:13 PM 38.5783 -90.2864 68° East 147 169 2,300 -387 Descending Kansas City Center
Fri 01:49:15 PM 38.5903 -90.2392 72° East 126 145 1,800 -528 Descending Kansas City Center
Fri 01:50:18 PM 38.5925 -90.2028 86° East 111 128 1,200 -581 Descending Kansas City Center
Fri 01:51:19 PM 38.5778 -90.1722 122° Southeast 105 121 600 -590 Descending Kansas City Center
Fri 01:53:00 PM 38.5667 -90.1500 90° East  Level FlightAware Approximate
Fri 02:00:00 PM 38.5704 -90.1551 90° East  Level Estimated

Login

Don't have an account? Register now (free) for customized features, flight alerts, and more!